Time;durP1;ratioP1;P1;durP2;ratioP2;P2;SDS_P1;SDS_P2;PMS_P1;PMS_P2;Temp;Humidity;BMP_temperature;BMP_pressure;BME280_temperature;BME280_humidity;BME280_pressure;Samples;Min_cycle;Max_cycle;Signal;HPM_P1;HPM_P2
2023/03/13 00:01:17;;;;;;;6.67;5.57;;;11.40;99.90;;;;;;4994580;28;20575;-62
2023/03/13 00:03:43;;;;;;;9.57;5.40;;;11.30;99.90;;;;;;4977170;28;20276;-63
2023/03/13 00:06:08;;;;;;;9.70;5.93;;;11.20;99.90;;;;;;4994887;28;20208;-64
2023/03/13 00:08:34;;;;;;;10.13;5.70;;;11.20;99.90;;;;;;4994648;28;20315;-63
2023/03/13 00:11:05;;;;;;;19.23;6.03;;;11.20;99.90;;;;;;4993312;28;20332;-64
2023/03/13 00:13:31;;;;;;;5.43;5.07;;;11.30;99.90;;;;;;4994596;28;20184;-63
2023/03/13 00:16:00;;;;;;;6.37;5.60;;;11.30;99.90;;;;;;4994452;28;20239;-64
2023/03/13 00:18:26;;;;;;;8.00;5.63;;;11.30;99.90;;;;;;4994665;28;20204;-63
2023/03/13 00:20:58;;;;;;;7.30;6.70;;;11.40;99.90;;;;;;4993870;28;20235;-63
2023/03/13 00:23:24;;;;;;;10.53;6.67;;;11.40;99.90;;;;;;4994606;28;20173;-64
2023/03/13 00:25:56;;;;;;;8.50;6.50;;;11.40;99.90;;;;;;4994319;28;20185;-63
2023/03/13 00:28:21;;;;;;;7.20;6.37;;;11.50;99.90;;;;;;4994460;28;20184;-64
2023/03/13 00:30:47;;;;;;;13.10;6.40;;;11.50;99.90;;;;;;4993869;28;20200;-63
2023/03/13 00:33:12;;;;;;;8.10;5.23;;;11.50;99.90;;;;;;4994609;28;20211;-63
2023/03/13 00:35:38;;;;;;;7.83;5.83;;;11.60;99.90;;;;;;4994249;28;20178;-63
2023/03/13 00:38:04;;;;;;;7.87;5.70;;;11.60;99.90;;;;;;4994112;28;20665;-64
2023/03/13 00:40:29;;;;;;;5.60;5.03;;;11.60;99.90;;;;;;4993754;28;20200;-64
2023/03/13 00:42:55;;;;;;;6.73;5.60;;;11.50;99.90;;;;;;4994050;28;20189;-64
2023/03/13 00:45:20;;;;;;;11.50;5.70;;;11.30;99.90;;;;;;4993955;28;20263;-64
2023/03/13 00:47:46;;;;;;;12.50;6.07;;;11.20;99.90;;;;;;4994172;28;20188;-63
2023/03/13 00:50:11;;;;;;;6.30;5.70;;;11.10;99.90;;;;;;4993225;28;20285;-63
2023/03/13 00:52:37;;;;;;;10.17;6.03;;;11.00;99.90;;;;;;4994204;28;20263;-64
2023/03/13 00:55:03;;;;;;;9.10;6.00;;;11.00;99.90;;;;;;4993735;28;20264;-64
2023/03/13 00:57:28;;;;;;;6.60;5.73;;;11.00;99.90;;;;;;4994089;28;20223;-64
2023/03/13 00:59:54;;;;;;;7.20;5.53;;;11.00;99.90;;;;;;4993289;28;20216;-63
2023/03/13 01:02:19;;;;;;;5.67;5.30;;;10.90;99.90;;;;;;4993520;28;20737;-63
2023/03/13 01:04:45;;;;;;;12.87;6.53;;;11.00;99.90;;;;;;4993829;28;20184;-63
2023/03/13 01:07:11;;;;;;;11.00;5.43;;;11.00;99.90;;;;;;4993712;28;20207;-63
2023/03/13 01:09:36;;;;;;;9.27;5.37;;;11.00;99.90;;;;;;4993153;28;20570;-63
2023/03/13 01:12:02;;;;;;;7.90;6.43;;;11.00;99.90;;;;;;4993565;28;20642;-63
2023/03/13 01:14:27;;;;;;;13.00;6.20;;;11.00;99.90;;;;;;4993560;28;20192;-63
2023/03/13 01:16:53;;;;;;;6.00;5.43;;;11.00;99.90;;;;;;4993348;28;20183;-64
2023/03/13 01:19:19;;;;;;;6.73;6.07;;;11.10;99.90;;;;;;4993405;28;20680;-64
2023/03/13 01:21:45;;;;;;;7.73;6.80;;;11.20;99.90;;;;;;4992784;28;20395;-64
2023/03/13 01:24:11;;;;;;;8.63;6.10;;;11.20;99.90;;;;;;4993577;28;20173;-63
2023/03/13 01:26:37;;;;;;;8.10;6.87;;;11.30;99.90;;;;;;4993442;28;20571;-63
2023/03/13 01:29:03;;;;;;;6.80;6.20;;;11.40;99.90;;;;;;4975821;28;20205;-64
2023/03/13 01:31:33;;;;;;;5.50;5.03;;;11.40;99.90;;;;;;4992895;28;20283;-63
2023/03/13 01:34:02;;;;;;;5.60;5.20;;;11.50;99.90;;;;;;4993379;28;20790;-62
2023/03/13 01:36:28;;;;;;;6.70;5.80;;;11.60;99.90;;;;;;4993157;28;20184;-63
2023/03/13 01:38:56;;;;;;;6.03;5.03;;;11.60;99.90;;;;;;4993178;28;20183;-64
2023/03/13 01:41:23;;;;;;;8.97;5.47;;;11.70;99.90;;;;;;4992774;28;20283;-64
2023/03/13 01:43:49;;;;;;;8.23;6.73;;;11.70;99.90;;;;;;4993058;28;20172;-63
2023/03/13 01:46:17;;;;;;;12.20;6.27;;;11.70;99.90;;;;;;4992784;28;20188;-63
2023/03/13 01:48:48;;;;;;;6.40;5.43;;;11.80;99.90;;;;;;4992879;28;20197;-64
2023/03/13 01:51:28;;;;;;;8.80;5.00;;;11.80;99.90;;;;;;4992725;28;20284;-64
2023/03/13 01:54:03;;;;;;;5.80;5.30;;;11.80;99.90;;;;;;4992951;28;20184;-62
2023/03/13 01:56:40;;;;;;;6.00;5.80;;;11.80;99.90;;;;;;4992764;28;20528;-64
2023/03/13 01:59:09;;;;;;;6.67;5.77;;;11.80;99.90;;;;;;4975398;28;20176;-64
2023/03/13 02:01:36;;;;;;;6.57;4.83;;;11.70;99.90;;;;;;4992445;28;20625;-63
2023/03/13 02:04:02;;;;;;;5.37;5.00;;;11.60;99.90;;;;;;4992577;28;20235;-63
2023/03/13 02:06:31;;;;;;;5.43;4.77;;;11.60;99.90;;;;;;4992567;28;20177;-64
2023/03/13 02:09:06;;;;;;;7.10;6.37;;;11.50;99.90;;;;;;4992678;28;20254;-63
2023/03/13 02:11:40;;;;;;;6.00;5.50;;;11.50;99.90;;;;;;4992798;28;20239;-64
2023/03/13 02:14:06;;;;;;;6.33;5.87;;;11.40;99.90;;;;;;4992683;28;20172;-64
2023/03/13 02:16:33;;;;;;;7.33;5.07;;;11.40;99.90;;;;;;4992380;28;20177;-64
2023/03/13 02:19:01;;;;;;;6.23;5.30;;;11.30;99.90;;;;;;4992488;28;20601;-64
2023/03/13 02:21:45;;;;;;;6.67;6.03;;;11.30;99.90;;;;;;4992060;28;20564;-64
2023/03/13 02:24:41;;;;;;;5.80;5.50;;;11.20;99.90;;;;;;4973056;28;20196;-64
2023/03/13 02:27:07;;;;;;;6.47;6.13;;;11.10;99.90;;;;;;4983708;28;20192;-64
2023/03/13 02:29:32;;;;;;;9.10;6.20;;;11.10;99.90;;;;;;4991407;28;20208;-64
2023/03/13 02:31:58;;;;;;;5.33;5.10;;;11.00;99.90;;;;;;4991980;28;20200;-64
2023/03/13 02:34:29;;;;;;;5.93;5.43;;;11.00;99.90;;;;;;4991610;28;20180;-65
2023/03/13 02:36:55;;;;;;;4.93;4.73;;;10.90;99.90;;;;;;4992067;28;20173;-65
2023/03/13 02:39:23;;;;;;;5.33;4.93;;;10.80;99.90;;;;;;4974451;28;20542;-65
2023/03/13 02:41:50;;;;;;;5.60;5.10;;;10.80;99.90;;;;;;4992193;28;20196;-64
2023/03/13 02:44:15;;;;;;;4.90;4.60;;;10.70;99.90;;;;;;4991857;28;20173;-65
2023/03/13 02:46:47;;;;;;;5.93;5.53;;;10.70;99.90;;;;;;4992148;28;20172;-65
2023/03/13 02:49:27;;;;;;;5.67;5.27;;;10.70;99.90;;;;;;4992014;28;20749;-64
2023/03/13 02:51:56;;;;;;;5.20;4.90;;;10.70;99.90;;;;;;4972876;28;20197;-64
2023/03/13 02:54:29;;;;;;;4.93;4.73;;;10.70;99.90;;;;;;4973047;28;20174;-64
2023/03/13 02:56:58;;;;;;;5.20;4.90;;;10.70;99.90;;;;;;4992165;28;20263;-64
2023/03/13 02:59:24;;;;;;;5.70;5.20;;;10.70;99.90;;;;;;4991691;28;20651;-65
2023/03/13 03:01:53;;;;;;;6.17;5.77;;;10.70;99.90;;;;;;4991766;28;20581;-64
2023/03/13 03:04:20;;;;;;;5.47;5.23;;;10.70;99.90;;;;;;4991650;28;20193;-64
2023/03/13 03:06:45;;;;;;;4.97;4.57;;;10.70;99.90;;;;;;4992058;28;20212;-65
2023/03/13 03:09:11;;;;;;;5.30;4.77;;;10.80;99.90;;;;;;4991631;28;20215;-65
2023/03/13 03:11:40;;;;;;;4.73;4.53;;;10.80;99.90;;;;;;4991841;28;20212;-65
2023/03/13 03:14:06;;;;;;;4.80;4.60;;;10.80;99.90;;;;;;4991539;28;20263;-64
2023/03/13 03:16:31;;;;;;;5.40;4.20;;;10.80;99.90;;;;;;4991966;28;20169;-65
2023/03/13 03:18:57;;;;;;;5.10;4.90;;;10.80;99.90;;;;;;4991712;28;20526;-64
2023/03/13 03:21:23;;;;;;;4.80;4.60;;;10.80;99.90;;;;;;4991836;28;20284;-65
2023/03/13 03:23:49;;;;;;;4.20;4.00;;;10.90;99.90;;;;;;4991966;28;20700;-65
2023/03/13 03:26:15;;;;;;;4.57;4.37;;;10.90;99.90;;;;;;4991759;28;20259;-65
2023/03/13 03:28:40;;;;;;;4.93;4.50;;;10.90;99.90;;;;;;4991733;28;20200;-65
2023/03/13 03:31:08;;;;;;;4.20;4.00;;;10.90;99.90;;;;;;4991605;28;20291;-64
2023/03/13 03:33:34;;;;;;;4.50;4.30;;;10.90;99.90;;;;;;4974070;28;20180;-64
2023/03/13 03:36:01;;;;;;;4.73;4.53;;;11.00;99.90;;;;;;4991434;28;20181;-64
2023/03/13 03:38:27;;;;;;;5.43;5.10;;;11.00;99.90;;;;;;4991858;28;20279;-64
2023/03/13 03:40:53;;;;;;;5.27;5.07;;;11.00;99.90;;;;;;4991037;28;20193;-64
2023/03/13 03:43:18;;;;;;;5.07;4.87;;;11.00;99.90;;;;;;4991875;28;20184;-64
2023/03/13 03:45:44;;;;;;;5.10;4.87;;;11.10;99.90;;;;;;4994151;28;20211;-64
2023/03/13 03:48:09;;;;;;;4.90;4.70;;;11.10;99.90;;;;;;4995232;28;20514;-64
2023/03/13 03:50:35;;;;;;;4.83;4.60;;;11.20;99.90;;;;;;4994641;28;20215;-64
2023/03/13 03:53:00;;;;;;;4.90;4.70;;;11.20;99.90;;;;;;4995179;28;20188;-64
2023/03/13 03:55:26;;;;;;;5.00;4.80;;;11.30;99.90;;;;;;4995160;28;20688;-67
2023/03/13 03:57:52;;;;;;;4.90;4.70;;;11.30;99.90;;;;;;4994980;28;20181;-66
2023/03/13 04:00:20;;;;;;;5.37;5.07;;;11.40;99.90;;;;;;4994608;28;20258;-64
2023/03/13 04:02:46;;;;;;;5.40;5.00;;;11.40;99.90;;;;;;4994718;28;20184;-63
2023/03/13 04:05:12;;;;;;;4.57;4.27;;;11.50;99.90;;;;;;4995039;28;20268;-66
2023/03/13 04:07:38;;;;;;;4.70;4.40;;;11.60;99.90;;;;;;4994699;28;20247;-64
2023/03/13 04:10:04;;;;;;;5.00;4.80;;;11.60;99.90;;;;;;4994222;28;20279;-64
2023/03/13 04:12:30;;;;;;;5.07;4.87;;;11.70;99.90;;;;;;4994555;28;20571;-63
2023/03/13 04:14:55;;;;;;;5.57;5.37;;;11.70;99.90;;;;;;4994725;28;20208;-64
2023/03/13 04:17:21;;;;;;;4.60;4.40;;;11.80;99.90;;;;;;4994327;28;20276;-63
2023/03/13 04:19:46;;;;;;;4.40;4.20;;;11.80;99.90;;;;;;4994355;28;20243;-64
2023/03/13 04:22:12;;;;;;;4.33;4.13;;;11.80;99.90;;;;;;4994858;28;20315;-63
2023/03/13 04:24:38;;;;;;;4.87;4.67;;;11.80;99.90;;;;;;4994263;28;20548;-63
2023/03/13 04:27:05;;;;;;;4.87;4.67;;;11.80;99.90;;;;;;4994406;28;20180;-64
2023/03/13 04:29:31;;;;;;;4.80;4.60;;;11.90;99.90;;;;;;4994124;28;20766;-64
2023/03/13 04:31:57;;;;;;;4.83;4.57;;;11.90;99.90;;;;;;4994299;28;20193;-64
2023/03/13 04:34:22;;;;;;;4.67;4.47;;;11.90;99.90;;;;;;4976566;28;20173;-64
2023/03/13 04:36:48;;;;;;;4.57;4.37;;;11.90;99.90;;;;;;4994384;28;20703;-64
2023/03/13 04:39:14;;;;;;;4.50;4.30;;;11.90;99.90;;;;;;4994067;28;20256;-63
2023/03/13 04:41:39;;;;;;;4.90;4.60;;;11.90;99.90;;;;;;4976293;28;20232;-63
2023/03/13 04:44:05;;;;;;;5.13;4.83;;;11.90;99.90;;;;;;4994168;28;20207;-64
2023/03/13 04:46:31;;;;;;;5.23;4.93;;;11.90;99.90;;;;;;4993672;28;20184;-64
2023/03/13 04:48:56;;;;;;;4.80;4.60;;;12.00;99.90;;;;;;4993812;28;20204;-64
2023/03/13 04:51:23;;;;;;;4.60;4.40;;;12.00;99.90;;;;;;4993815;28;20703;-64
2023/03/13 04:53:48;;;;;;;4.70;4.50;;;12.00;99.90;;;;;;4993789;28;20177;-63
2023/03/13 04:56:22;;;;;;;4.53;4.33;;;12.10;99.90;;;;;;4993186;28;20181;-64
2023/03/13 04:58:47;;;;;;;4.60;4.40;;;12.10;99.90;;;;;;4993723;28;20185;-63
2023/03/13 05:01:13;;;;;;;4.70;4.50;;;12.20;99.90;;;;;;4993598;28;20557;-63
2023/03/13 05:03:38;;;;;;;5.30;4.27;;;12.30;99.90;;;;;;4993572;28;20220;-64
2023/03/13 05:06:04;;;;;;;4.47;4.27;;;12.30;99.90;;;;;;4993216;28;20472;-63
2023/03/13 05:08:30;;;;;;;4.40;4.20;;;12.40;99.90;;;;;;4993024;28;20599;-63
2023/03/13 05:10:56;;;;;;;5.07;4.87;;;12.50;99.90;;;;;;4992434;28;20207;-63
2023/03/13 05:13:22;;;;;;;5.17;4.90;;;12.60;99.90;;;;;;4993668;28;20169;-63
2023/03/13 05:15:47;;;;;;;4.33;4.13;;;12.60;99.90;;;;;;4993239;28;20180;-63
2023/03/13 05:18:13;;;;;;;4.43;4.23;;;12.70;99.90;;;;;;4993407;28;20659;-63
2023/03/13 05:20:38;;;;;;;4.60;4.40;;;12.80;99.90;;;;;;4992784;28;20211;-63
2023/03/13 05:23:04;;;;;;;5.10;4.90;;;12.90;99.90;;;;;;4993271;28;20177;-64
2023/03/13 05:25:29;;;;;;;5.77;5.37;;;12.90;99.90;;;;;;4993313;28;20189;-64
2023/03/13 05:27:55;;;;;;;5.17;4.87;;;13.00;99.90;;;;;;4993643;28;20544;-64
2023/03/13 05:30:21;;;;;;;4.80;4.60;;;13.00;99.90;;;;;;4992419;28;20307;-64
2023/03/13 05:32:46;;;;;;;5.37;5.17;;;13.10;99.90;;;;;;4976002;28;20173;-64
2023/03/13 05:35:12;;;;;;;4.60;4.40;;;13.20;99.90;;;;;;4993310;28;20640;-64
2023/03/13 05:37:38;;;;;;;4.87;4.67;;;13.20;99.90;;;;;;4993419;28;20223;-64
2023/03/13 05:40:04;;;;;;;4.60;4.30;;;13.20;99.90;;;;;;4992506;28;20203;-64
2023/03/13 05:42:30;;;;;;;4.57;4.33;;;13.30;99.90;;;;;;4993032;28;20188;-64
2023/03/13 05:44:55;;;;;;;4.93;4.63;;;13.20;99.90;;;;;;4992657;28;20176;-63
2023/03/13 05:47:21;;;;;;;5.07;4.77;;;13.30;99.90;;;;;;4975636;28;20176;-64
2023/03/13 05:49:46;;;;;;;5.07;4.77;;;13.20;99.90;;;;;;4992006;28;20200;-64
2023/03/13 05:52:12;;;;;;;4.80;4.60;;;13.20;99.90;;;;;;4993028;28;20173;-64
2023/03/13 05:54:38;;;;;;;5.70;5.40;;;13.10;99.90;;;;;;4975440;28;20177;-63
2023/03/13 05:57:03;;;;;;;4.50;4.30;;;13.10;99.90;;;;;;4992722;28;20250;-64
2023/03/13 05:59:29;;;;;;;5.07;4.83;;;13.10;99.90;;;;;;4992569;28;20697;-64
2023/03/13 06:01:54;;;;;;;6.70;4.87;;;13.20;99.90;;;;;;4992746;28;20617;-64
2023/03/13 06:04:20;;;;;;;4.50;4.30;;;13.20;99.90;;;;;;4992446;28;20701;-64
2023/03/13 06:06:46;;;;;;;4.50;4.20;;;13.30;99.90;;;;;;4992765;28;20192;-64
2023/03/13 06:09:11;;;;;;;5.03;4.70;;;13.30;99.90;;;;;;4992162;28;20232;-65
2023/03/13 06:11:37;;;;;;;7.27;4.40;;;13.30;99.90;;;;;;4992596;28;20708;-65
2023/03/13 06:14:03;;;;;;;4.60;4.40;;;13.30;99.90;;;;;;4992234;28;20173;-65
2023/03/13 06:16:28;;;;;;;4.77;4.50;;;13.30;99.90;;;;;;4992632;28;20200;-63
2023/03/13 06:18:54;;;;;;;4.50;4.30;;;13.40;99.90;;;;;;4992189;28;20185;-64
2023/03/13 06:21:19;;;;;;;5.07;4.67;;;13.40;99.90;;;;;;4992095;28;20235;-64
2023/03/13 06:23:45;;;;;;;4.40;4.20;;;13.40;99.90;;;;;;4992414;28;20272;-64
2023/03/13 06:26:11;;;;;;;4.53;4.33;;;13.50;99.90;;;;;;4974993;28;20227;-64
2023/03/13 06:28:36;;;;;;;4.50;4.30;;;13.40;99.90;;;;;;4992349;28;20246;-65
2023/03/13 06:31:04;;;;;;;4.40;4.20;;;13.50;99.90;;;;;;4991729;28;20607;-64
2023/03/13 06:33:30;;;;;;;4.37;3.97;;;13.50;99.90;;;;;;4992303;28;20269;-65
2023/03/13 06:35:56;;;;;;;5.07;4.80;;;13.50;99.90;;;;;;4992318;28;20235;-64
2023/03/13 06:38:22;;;;;;;8.10;7.60;;;13.60;99.90;;;;;;4991998;28;20180;-65
2023/03/13 06:40:48;;;;;;;5.53;5.33;;;13.70;99.90;;;;;;4991894;28;20591;-64
2023/03/13 06:43:14;;;;;;;5.20;4.97;;;13.70;99.90;;;;;;4992210;28;20185;-65
2023/03/13 06:45:39;;;;;;;6.13;5.83;;;13.70;99.90;;;;;;4992551;28;20161;-64
2023/03/13 06:48:05;;;;;;;5.43;4.93;;;13.80;99.90;;;;;;4992385;28;20184;-65
2023/03/13 06:50:30;;;;;;;5.20;4.90;;;13.80;99.90;;;;;;4991646;28;20276;-65
2023/03/13 06:52:56;;;;;;;4.70;4.50;;;13.90;99.90;;;;;;4991879;28;20177;-65
2023/03/13 06:55:22;;;;;;;5.40;4.70;;;13.90;99.90;;;;;;4992105;28;20208;-64
2023/03/13 06:57:50;;;;;;;5.00;4.80;;;14.00;99.90;;;;;;4991815;28;20180;-64
2023/03/13 07:00:16;;;;;;;5.17;4.97;;;14.00;99.90;;;;;;4992348;28;20223;-63
2023/03/13 07:02:41;;;;;;;5.83;5.43;;;14.00;99.90;;;;;;4991984;28;20204;-63
2023/03/13 07:05:07;;;;;;;5.50;5.23;;;14.00;99.90;;;;;;4990776;28;20251;-64
2023/03/13 07:07:33;;;;;;;5.20;4.97;;;14.10;99.90;;;;;;4991919;28;20196;-64
2023/03/13 07:09:59;;;;;;;5.33;4.97;;;14.10;99.90;;;;;;4973931;28;20215;-64
2023/03/13 07:12:25;;;;;;;7.87;7.27;;;14.10;99.90;;;;;;4973104;28;20181;-64
2023/03/13 07:14:50;;;;;;;5.57;5.10;;;14.20;99.90;;;;;;4991631;28;20169;-64
2023/03/13 07:17:16;;;;;;;6.07;5.60;;;14.20;99.90;;;;;;4974539;28;20177;-64
2023/03/13 07:19:41;;;;;;;15.03;14.13;;;14.20;99.90;;;;;;4975337;28;20181;-64
2023/03/13 07:22:07;;;;;;;10.90;10.30;;;14.20;99.90;;;;;;4995814;28;20184;-65
2023/03/13 07:24:33;;;;;;;8.60;8.03;;;14.20;99.90;;;;;;4995393;28;20185;-64
2023/03/13 07:26:59;;;;;;;8.93;8.53;;;14.30;99.90;;;;;;4995765;28;20233;-63
2023/03/13 07:29:25;;;;;;;9.10;8.63;;;14.30;99.90;;;;;;4995413;28;20244;-63
2023/03/13 07:31:50;;;;;;;14.60;13.93;;;14.40;99.90;;;;;;4995397;28;20733;-64
2023/03/13 07:34:16;;;;;;;6.30;5.80;;;14.40;99.90;;;;;;4995254;28;20188;-64
2023/03/13 07:36:42;;;;;;;5.57;5.10;;;14.50;99.90;;;;;;4978055;28;20188;-64
2023/03/13 07:39:08;;;;;;;5.57;5.10;;;14.50;99.90;;;;;;4977301;28;20184;-63
2023/03/13 07:41:34;;;;;;;6.83;6.40;;;14.60;99.90;;;;;;4995510;28;20211;-64
2023/03/13 07:43:59;;;;;;;6.20;5.63;;;14.60;99.90;;;;;;4994950;28;20177;-64
2023/03/13 07:46:25;;;;;;;10.57;9.97;;;14.70;99.90;;;;;;4995200;28;20211;-64
2023/03/13 07:48:54;;;;;;;6.80;6.17;;;14.80;99.90;;;;;;4994985;28;20212;-64
2023/03/13 07:51:22;;;;;;;6.57;6.27;;;14.70;99.90;;;;;;4977548;28;20209;-64
2023/03/13 07:53:48;;;;;;;6.60;6.20;;;14.80;99.90;;;;;;4994859;28;20181;-64
2023/03/13 07:56:19;;;;;;;5.80;5.40;;;14.70;99.90;;;;;;4995167;28;20235;-64
2023/03/13 07:58:45;;;;;;;4.63;4.43;;;14.70;99.90;;;;;;4995040;28;20207;-63
2023/03/13 08:01:20;;;;;;;5.73;5.20;;;14.70;99.90;;;;;;4994063;28;20236;-64
2023/03/13 08:03:49;;;;;;;4.60;4.30;;;14.60;99.90;;;;;;4994958;28;20208;-64
2023/03/13 08:06:20;;;;;;;5.47;4.93;;;14.60;99.90;;;;;;4994737;28;20212;-64
2023/03/13 08:08:46;;;;;;;5.77;5.27;;;14.60;99.90;;;;;;4977634;28;20295;-66
2023/03/13 08:11:17;;;;;;;7.73;5.27;;;14.60;99.90;;;;;;5028124;22;20232;-63
2023/03/13 08:13:43;;;;;;;5.27;4.77;;;14.60;99.90;;;;;;5014599;28;20247;-65
2023/03/13 08:16:18;;;;;;;5.03;4.57;;;14.60;99.90;;;;;;5014451;28;20191;-66
2023/03/13 08:18:46;;;;;;;4.87;4.57;;;14.60;99.90;;;;;;5014532;28;20222;-65
2023/03/13 08:21:14;;;;;;;4.93;4.63;;;14.60;99.90;;;;;;5013611;28;20218;-64
2023/03/13 08:23:40;;;;;;;9.27;8.87;;;14.60;99.90;;;;;;5014467;28;20536;-65
2023/03/13 08:26:16;;;;;;;5.97;4.73;;;14.60;99.90;;;;;;5013878;28;20184;-65
2023/03/13 08:28:42;;;;;;;8.40;8.00;;;14.70;99.90;;;;;;5012515;28;20208;-65
2023/03/13 08:31:20;;;;;;;5.40;5.00;;;14.70;99.90;;;;;;5012636;28;20254;-65
2023/03/13 08:33:46;;;;;;;4.60;4.30;;;14.70;99.90;;;;;;5014263;28;20641;-65
2023/03/13 08:36:14;;;;;;;6.63;5.10;;;14.60;99.90;;;;;;5014172;28;20172;-66
2023/03/13 08:38:42;;;;;;;5.20;4.80;;;14.70;99.90;;;;;;5013539;28;20251;-65
2023/03/13 08:41:08;;;;;;;4.70;4.40;;;14.70;99.90;;;;;;5013645;28;20204;-65
2023/03/13 08:43:34;;;;;;;4.73;4.43;;;14.70;99.90;;;;;;5013961;28;20180;-64
2023/03/13 08:45:59;;;;;;;4.70;4.37;;;14.70;99.90;;;;;;5013943;28;20172;-64
2023/03/13 08:48:25;;;;;;;4.70;4.30;;;14.80;99.90;;;;;;5013506;28;20192;-63
2023/03/13 08:51:01;;;;;;;5.07;4.57;;;14.80;99.90;;;;;;5010567;28;20204;-64
2023/03/13 08:53:27;;;;;;;5.97;5.20;;;14.80;99.90;;;;;;5009715;28;20249;-64
2023/03/13 08:55:53;;;;;;;4.60;4.20;;;14.80;99.90;;;;;;5009753;28;20190;-64
2023/03/13 08:58:19;;;;;;;8.23;7.83;;;14.80;99.90;;;;;;5009651;28;20378;-65
2023/03/13 09:00:44;;;;;;;5.90;5.30;;;14.90;99.90;;;;;;5009916;28;20290;-65
2023/03/13 09:03:10;;;;;;;6.10;5.17;;;15.00;99.90;;;;;;5010437;28;20187;-65
2023/03/13 09:05:39;;;;;;;5.33;4.83;;;15.00;99.90;;;;;;5010324;28;20192;-64
2023/03/13 09:08:05;;;;;;;10.67;10.13;;;15.10;99.90;;;;;;5010159;28;20208;-65
2023/03/13 09:10:34;;;;;;;4.90;4.50;;;15.10;99.90;;;;;;5009316;28;20289;-64
2023/03/13 09:13:00;;;;;;;5.20;4.80;;;15.10;99.90;;;;;;5010242;28;20179;-64
2023/03/13 09:15:25;;;;;;;18.10;17.20;;;15.00;99.90;;;;;;5010087;28;20661;-64
2023/03/13 09:17:51;;;;;;;10.97;10.47;;;14.90;99.90;;;;;;5010075;28;20207;-64
2023/03/13 09:20:17;;;;;;;8.23;7.83;;;14.90;99.90;;;;;;5009864;28;20184;-64
2023/03/13 09:22:44;;;;;;;5.77;5.47;;;15.00;99.90;;;;;;5009726;28;20745;-65
2023/03/13 09:25:10;;;;;;;6.67;6.33;;;15.10;99.90;;;;;;5009699;28;20541;-64
2023/03/13 09:27:36;;;;;;;9.07;8.53;;;15.20;99.90;;;;;;5010062;28;20180;-64
2023/03/13 09:30:03;;;;;;;7.10;6.63;;;15.20;99.90;;;;;;5007731;28;20230;-64
2023/03/13 09:32:28;;;;;;;4.90;4.60;;;15.30;99.90;;;;;;5009606;28;20180;-64
2023/03/13 09:34:54;;;;;;;5.83;5.40;;;15.40;99.90;;;;;;5009274;28;20187;-64
2023/03/13 09:37:20;;;;;;;6.73;6.10;;;15.60;99.90;;;;;;5009954;28;20717;-65
2023/03/13 09:39:47;;;;;;;5.30;4.93;;;15.70;99.90;;;;;;5008528;28;20271;-65
2023/03/13 09:42:19;;;;;;;7.10;6.50;;;16.00;99.90;;;;;;5009367;28;20732;-64
2023/03/13 09:45:06;;;;;;;6.37;5.87;;;16.20;99.90;;;;;;5009530;28;20220;-64
2023/03/13 09:47:43;;;;;;;4.10;3.90;;;16.60;99.90;;;;;;5009353;28;20255;-65
2023/03/13 09:50:43;;;;;;;4.07;3.83;;;16.80;99.90;;;;;;5009281;28;20285;-64
2023/03/13 09:53:29;;;;;;;4.70;4.30;;;17.00;99.90;;;;;;5009100;28;20180;-64
2023/03/13 09:55:54;;;;;;;5.73;4.97;;;16.90;99.90;;;;;;5009974;28;20172;-64
2023/03/13 09:58:27;;;;;;;5.23;5.00;;;16.70;99.90;;;;;;5010084;28;20175;-65
2023/03/13 10:01:05;;;;;;;5.90;5.40;;;16.50;99.90;;;;;;5006219;28;20619;-64
2023/03/13 10:03:39;;;;;;;7.20;6.73;;;16.50;99.90;;;;;;5008932;28;20673;-65
2023/03/13 10:06:17;;;;;;;5.50;5.10;;;16.50;99.90;;;;;;5007898;28;20645;-65
2023/03/13 10:08:42;;;;;;;5.03;4.60;;;16.60;99.90;;;;;;5008505;28;20176;-65
2023/03/13 10:11:25;;;;;;;4.80;4.50;;;16.80;99.90;;;;;;5007995;28;20265;-64
2023/03/13 10:13:54;;;;;;;4.20;3.90;;;16.80;99.90;;;;;;5009142;28;20172;-63
2023/03/13 10:16:31;;;;;;;4.87;4.63;;;16.90;99.90;;;;;;5008703;28;20238;-65
2023/03/13 10:19:01;;;;;;;11.77;11.27;;;17.10;99.90;;;;;;5009056;28;20234;-65
2023/03/13 10:21:33;;;;;;;6.10;5.73;;;17.40;99.90;;;;;;5008305;28;20207;-64
2023/03/13 10:24:25;;;;;;;3.83;3.63;;;17.60;99.90;;;;;;5008822;28;20552;-65
2023/03/13 10:26:50;;;;;;;3.70;3.50;;;17.90;99.90;;;;;;5008527;28;20304;-64
2023/03/13 10:29:21;;;;;;;4.33;4.13;;;18.10;99.90;;;;;;5008384;28;20235;-64
2023/03/13 10:32:00;;;;;;;3.97;3.77;;;18.10;99.90;;;;;;5008734;28;20342;-64
2023/03/13 10:34:48;;;;;;;4.27;4.07;;;18.20;99.90;;;;;;5008811;28;20180;-65
2023/03/13 10:37:16;;;;;;;6.73;6.30;;;18.30;99.90;;;;;;5008363;28;20188;-66
2023/03/13 10:39:41;;;;;;;5.27;4.93;;;18.60;99.90;;;;;;5008226;28;20184;-65
2023/03/13 10:42:16;;;;;;;17.27;16.43;;;18.80;99.90;;;;;;5008734;28;20204;-64
2023/03/13 10:44:43;;;;;;;4.33;4.07;;;18.60;99.90;;;;;;5008034;28;20548;-65
2023/03/13 10:47:12;;;;;;;3.97;3.67;;;18.60;99.90;;;;;;5008259;28;20172;-65
2023/03/13 10:49:48;;;;;;;4.30;4.10;;;18.50;99.90;;;;;;5008093;28;20203;-64
2023/03/13 10:52:48;;;;;;;6.40;6.10;;;18.60;99.90;;;;;;5008719;28;20192;-64
2023/03/13 10:55:20;;;;;;;5.23;4.10;;;18.50;99.90;;;;;;5007379;28;20618;-64
2023/03/13 10:57:54;;;;;;;3.40;3.20;;;18.40;99.90;;;;;;5008371;28;20212;-64
2023/03/13 11:00:40;;;;;;;3.77;3.57;;;18.60;99.90;;;;;;5007552;28;20545;-64
2023/03/13 11:03:24;;;;;;;4.13;3.93;;;19.00;99.90;;;;;;5007823;28;20187;-65
2023/03/13 11:05:56;;;;;;;3.20;3.00;;;19.00;99.90;;;;;;5008550;28;20203;-65
2023/03/13 11:08:25;;;;;;;5.17;4.97;;;19.20;99.90;;;;;;5008432;28;20195;-65
2023/03/13 11:11:14;;;;;;;12.30;11.80;;;19.50;99.90;;;;;;5007689;28;20235;-65
2023/03/13 11:13:42;;;;;;;3.60;3.40;;;19.60;99.90;;;;;;5007545;28;20172;-65
2023/03/13 11:16:18;;;;;;;5.77;3.23;;;19.10;99.90;;;;;;5007375;28;20190;-65
2023/03/13 11:19:05;;;;;;;3.77;3.57;;;18.90;99.90;;;;;;5008095;28;20214;-66
2023/03/13 11:21:44;;;;;;;4.63;4.33;;;18.80;99.90;;;;;;5006075;28;20204;-65
2023/03/13 11:24:22;;;;;;;4.30;4.10;;;18.50;99.90;;;;;;4988669;28;20258;-65
2023/03/13 11:27:02;;;;;;;3.63;3.30;;;18.00;99.90;;;;;;4990412;28;20669;-66
2023/03/13 11:29:48;;;;;;;3.97;3.77;;;18.00;99.90;;;;;;5008028;28;20419;-66
2023/03/13 11:32:25;;;;;;;3.97;3.77;;;18.10;99.90;;;;;;5008115;28;20192;-65
2023/03/13 11:34:57;;;;;;;11.50;10.93;;;18.10;99.90;;;;;;5007932;28;20175;-64
2023/03/13 11:37:26;;;;;;;4.53;4.17;;;17.90;99.90;;;;;;4988762;28;20173;-65
2023/03/13 11:40:05;;;;;;;8.53;4.23;;;18.00;99.90;;;;;;4988274;28;20176;-65
2023/03/13 11:42:46;;;;;;;4.73;4.53;;;18.40;99.90;;;;;;4988339;28;20185;-65
2023/03/13 11:45:52;;;;;;;4.80;3.40;;;18.50;99.90;;;;;;4990810;28;20249;-65
2023/03/13 11:48:54;;;;;;;3.83;3.63;;;18.90;99.90;;;;;;5008231;28;20176;-64
2023/03/13 11:51:40;;;;;;;3.70;3.50;;;19.00;99.90;;;;;;5007284;28;20247;-65
2023/03/13 11:54:27;;;;;;;3.60;3.33;;;19.00;99.90;;;;;;5005688;28;20632;-65
2023/03/13 11:57:21;;;;;;;3.40;3.30;;;19.30;99.90;;;;;;5007460;28;20192;-65
2023/03/13 11:59:56;;;;;;;4.13;3.83;;;19.90;99.90;;;;;;5001243;28;20207;-65
2023/03/13 12:02:29;;;;;;;3.50;2.90;;;19.80;99.90;;;;;;5008377;28;20203;-66
2023/03/13 12:05:00;;;;;;;4.13;3.93;;;19.50;99.90;;;;;;5007379;28;20184;-65
2023/03/13 12:07:40;;;;;;;5.00;4.73;;;19.00;99.90;;;;;;5011447;28;20168;-65
2023/03/13 12:10:13;;;;;;;3.80;3.50;;;18.40;99.90;;;;;;5010690;28;20246;-64
2023/03/13 12:12:43;;;;;;;5.67;5.43;;;18.10;99.90;;;;;;5011303;28;20243;-65
2023/03/13 12:15:22;;;;;;;6.10;3.93;;;17.90;99.90;;;;;;5011165;28;20594;-66
2023/03/13 12:17:55;;;;;;;3.93;3.73;;;17.80;99.90;;;;;;5011343;28;20183;-65
2023/03/13 12:20:36;;;;;;;4.00;3.80;;;17.80;99.90;;;;;;5010943;28;20196;-66
2023/03/13 12:23:17;;;;;;;8.30;4.43;;;17.90;99.90;;;;;;5011399;28;20695;-64
2023/03/13 12:25:54;;;;;;;5.87;5.67;;;18.60;99.90;;;;;;5010752;28;20685;-64
2023/03/13 12:28:22;;;;;;;7.67;7.37;;;18.90;99.90;;;;;;5011043;28;20434;-66
2023/03/13 12:31:26;;;;;;;3.47;3.30;;;19.30;99.90;;;;;;5009980;28;20239;-66
2023/03/13 12:34:08;;;;;;;3.53;3.23;;;19.60;99.90;;;;;;5010924;28;20179;-65
2023/03/13 12:36:47;;;;;;;3.40;3.20;;;19.50;99.90;;;;;;5010844;28;20218;-65
2023/03/13 12:39:28;;;;;;;3.90;3.70;;;19.20;99.90;;;;;;5010752;28;20187;-65
2023/03/13 12:42:06;;;;;;;14.37;13.67;;;19.10;99.90;;;;;;4991163;28;20204;-64
2023/03/13 12:44:32;;;;;;;5.07;4.23;;;18.80;99.90;;;;;;4992516;28;20173;-65
2023/03/13 12:47:28;;;;;;;4.90;4.50;;;18.60;99.90;;;;;;5010452;28;20187;-65
2023/03/13 12:50:18;;;;;;;4.13;3.80;;;18.70;99.90;;;;;;5009688;28;20210;-66
2023/03/13 12:52:56;;;;;;;3.30;3.20;;;19.40;99.90;;;;;;5010143;28;20263;-65
2023/03/13 12:55:43;;;;;;;3.90;3.60;;;19.50;99.90;;;;;;5010980;28;20179;-65
2023/03/13 12:58:39;;;;;;;3.60;3.40;;;19.10;99.90;;;;;;5010455;28;20275;-65